sensor_id;sensor_type;location;lat;lon;timestamp;P1;durP1;ratioP1;P2;durP2;ratioP2
43519;SDS011;46848;51.980;5.918;2022-09-12T00:00:39;18.23;;;15.98;;
43519;SDS011;46848;51.980;5.918;2022-09-12T00:03:05;20.73;;;15.43;;
43519;SDS011;46848;51.980;5.918;2022-09-12T00:05:30;25.25;;;18.15;;
43519;SDS011;46848;51.980;5.918;2022-09-12T00:07:57;22.45;;;16.25;;
43519;SDS011;46848;51.980;5.918;2022-09-12T00:10:23;18.45;;;14.75;;
43519;SDS011;46848;51.980;5.918;2022-09-12T00:12:50;15.38;;;12.45;;
43519;SDS011;46848;51.980;5.918;2022-09-12T00:15:16;14.05;;;10.80;;
43519;SDS011;46848;51.980;5.918;2022-09-12T00:17:41;12.38;;;9.73;;
43519;SDS011;46848;51.980;5.918;2022-09-12T00:20:07;29.52;;;23.02;;
43519;SDS011;46848;51.980;5.918;2022-09-12T00:22:35;20.88;;;17.27;;
43519;SDS011;46848;51.980;5.918;2022-09-12T00:25:01;15.90;;;12.45;;
43519;SDS011;46848;51.980;5.918;2022-09-12T00:27:28;12.57;;;10.00;;
43519;SDS011;46848;51.980;5.918;2022-09-12T00:29:54;10.93;;;9.57;;
43519;SDS011;46848;51.980;5.918;2022-09-12T00:32:20;11.98;;;8.85;;
43519;SDS011;46848;51.980;5.918;2022-09-12T00:34:46;10.90;;;8.18;;
43519;SDS011;46848;51.980;5.918;2022-09-12T00:37:12;10.30;;;8.90;;
43519;SDS011;46848;51.980;5.918;2022-09-12T00:39:38;11.30;;;9.38;;
43519;SDS011;46848;51.980;5.918;2022-09-12T00:42:03;11.95;;;8.80;;
43519;SDS011;46848;51.980;5.918;2022-09-12T00:49:34;10.93;;;9.13;;
43519;SDS011;46848;51.980;5.918;2022-09-12T00:52:14;12.82;;;9.05;;
43519;SDS011;46848;51.980;5.918;2022-09-12T00:57:43;10.82;;;8.82;;
43519;SDS011;46848;51.980;5.918;2022-09-12T01:00:22;10.55;;;9.13;;
43519;SDS011;46848;51.980;5.918;2022-09-12T01:03:00;11.70;;;8.82;;
43519;SDS011;46848;51.980;5.918;2022-09-12T01:07:58;13.50;;;8.57;;
43519;SDS011;46848;51.980;5.918;2022-09-12T01:10:26;10.57;;;9.20;;
43519;SDS011;46848;51.980;5.918;2022-09-12T01:12:52;12.90;;;10.00;;
43519;SDS011;46848;51.980;5.918;2022-09-12T01:15:18;12.75;;;10.40;;
43519;SDS011;46848;51.980;5.918;2022-09-12T01:21:08;12.02;;;10.70;;
43519;SDS011;46848;51.980;5.918;2022-09-12T01:32:46;13.35;;;10.57;;
43519;SDS011;46848;51.980;5.918;2022-09-12T01:37:51;12.63;;;10.93;;
43519;SDS011;46848;51.980;5.918;2022-09-12T01:43:46;13.57;;;12.10;;
43519;SDS011;46848;51.980;5.918;2022-09-12T01:46:20;16.05;;;12.43;;
43519;SDS011;46848;51.980;5.918;2022-09-12T01:49:14;14.32;;;12.05;;
43519;SDS011;46848;51.980;5.918;2022-09-12T01:51:53;14.82;;;12.27;;
43519;SDS011;46848;51.980;5.918;2022-09-12T01:54:32;15.85;;;13.00;;
43519;SDS011;46848;51.980;5.918;2022-09-12T01:57:12;15.40;;;13.10;;
43519;SDS011;46848;51.980;5.918;2022-09-12T01:59:50;17.80;;;14.10;;
43519;SDS011;46848;51.980;5.918;2022-09-12T02:02:33;15.48;;;13.25;;
43519;SDS011;46848;51.980;5.918;2022-09-12T02:05:07;16.63;;;14.25;;
43519;SDS011;46848;51.980;5.918;2022-09-12T02:07:38;21.10;;;16.27;;
43519;SDS011;46848;51.980;5.918;2022-09-12T02:10:15;22.95;;;17.60;;
43519;SDS011;46848;51.980;5.918;2022-09-12T02:15:19;35.85;;;26.30;;
43519;SDS011;46848;51.980;5.918;2022-09-12T02:17:51;25.08;;;20.38;;
43519;SDS011;46848;51.980;5.918;2022-09-12T02:20:19;22.63;;;18.40;;
43519;SDS011;46848;51.980;5.918;2022-09-12T02:22:50;20.23;;;16.85;;
43519;SDS011;46848;51.980;5.918;2022-09-12T02:25:19;20.17;;;17.17;;
43519;SDS011;46848;51.980;5.918;2022-09-12T02:27:49;19.05;;;16.27;;
43519;SDS011;46848;51.980;5.918;2022-09-12T02:30:21;19.35;;;16.38;;
43519;SDS011;46848;51.980;5.918;2022-09-12T02:35:37;22.35;;;17.40;;
43519;SDS011;46848;51.980;5.918;2022-09-12T02:38:14;19.38;;;16.33;;
43519;SDS011;46848;51.980;5.918;2022-09-12T02:43:10;17.65;;;14.30;;
43519;SDS011;46848;51.980;5.918;2022-09-12T02:45:35;18.45;;;15.18;;
43519;SDS011;46848;51.980;5.918;2022-09-12T02:48:03;18.75;;;15.88;;
43519;SDS011;46848;51.980;5.918;2022-09-12T02:50:36;20.00;;;16.25;;
43519;SDS011;46848;51.980;5.918;2022-09-12T02:53:02;17.17;;;14.63;;
43519;SDS011;46848;51.980;5.918;2022-09-12T02:55:31;18.55;;;15.65;;
43519;SDS011;46848;51.980;5.918;2022-09-12T02:58:01;21.02;;;15.90;;
43519;SDS011;46848;51.980;5.918;2022-09-12T03:03:05;16.58;;;13.15;;
43519;SDS011;46848;51.980;5.918;2022-09-12T03:05:56;17.20;;;14.13;;
43519;SDS011;46848;51.980;5.918;2022-09-12T03:27:33;20.48;;;16.10;;
43519;SDS011;46848;51.980;5.918;2022-09-12T03:30:03;20.40;;;17.50;;
43519;SDS011;46848;51.980;5.918;2022-09-12T03:32:43;21.30;;;16.88;;
43519;SDS011;46848;51.980;5.918;2022-09-12T03:35:15;21.10;;;17.17;;
43519;SDS011;46848;51.980;5.918;2022-09-12T03:37:42;21.33;;;17.92;;
43519;SDS011;46848;51.980;5.918;2022-09-12T03:40:08;23.50;;;16.60;;
43519;SDS011;46848;51.980;5.918;2022-09-12T03:42:36;22.70;;;17.90;;
43519;SDS011;46848;51.980;5.918;2022-09-12T03:45:02;22.35;;;17.35;;
43519;SDS011;46848;51.980;5.918;2022-09-12T03:47:28;19.55;;;17.17;;
43519;SDS011;46848;51.980;5.918;2022-09-12T03:49:54;22.15;;;17.60;;
43519;SDS011;46848;51.980;5.918;2022-09-12T03:52:20;22.73;;;18.30;;
43519;SDS011;46848;51.980;5.918;2022-09-12T03:54:46;21.40;;;17.20;;
43519;SDS011;46848;51.980;5.918;2022-09-12T03:57:12;22.63;;;17.63;;
43519;SDS011;46848;51.980;5.918;2022-09-12T03:59:38;18.83;;;16.38;;
43519;SDS011;46848;51.980;5.918;2022-09-12T04:02:03;21.98;;;17.35;;
43519;SDS011;46848;51.980;5.918;2022-09-12T04:04:29;22.77;;;17.85;;
43519;SDS011;46848;51.980;5.918;2022-09-12T04:06:55;21.30;;;17.38;;
43519;SDS011;46848;51.980;5.918;2022-09-12T04:09:21;20.48;;;17.27;;
43519;SDS011;46848;51.980;5.918;2022-09-12T04:11:46;22.17;;;16.73;;
43519;SDS011;46848;51.980;5.918;2022-09-12T04:14:12;21.27;;;16.95;;
43519;SDS011;46848;51.980;5.918;2022-09-12T04:16:38;21.98;;;17.13;;
43519;SDS011;46848;51.980;5.918;2022-09-12T04:19:03;21.23;;;16.58;;
43519;SDS011;46848;51.980;5.918;2022-09-12T04:21:29;18.73;;;16.08;;
43519;SDS011;46848;51.980;5.918;2022-09-12T04:23:55;21.33;;;17.00;;
43519;SDS011;46848;51.980;5.918;2022-09-12T04:26:21;22.75;;;17.67;;
43519;SDS011;46848;51.980;5.918;2022-09-12T04:28:47;22.92;;;18.02;;
43519;SDS011;46848;51.980;5.918;2022-09-12T04:31:14;23.38;;;17.33;;
43519;SDS011;46848;51.980;5.918;2022-09-12T04:33:46;23.15;;;17.90;;
43519;SDS011;46848;51.980;5.918;2022-09-12T04:36:13;22.17;;;17.98;;
43519;SDS011;46848;51.980;5.918;2022-09-12T04:38:44;23.48;;;17.38;;
43519;SDS011;46848;51.980;5.918;2022-09-12T04:41:12;22.85;;;18.15;;
43519;SDS011;46848;51.980;5.918;2022-09-12T04:43:42;25.15;;;17.77;;
43519;SDS011;46848;51.980;5.918;2022-09-12T04:46:12;25.77;;;18.23;;
43519;SDS011;46848;51.980;5.918;2022-09-12T04:48:40;24.65;;;17.77;;
43519;SDS011;46848;51.980;5.918;2022-09-12T04:51:10;25.00;;;17.92;;
43519;SDS011;46848;51.980;5.918;2022-09-12T04:53:37;25.13;;;17.40;;
43519;SDS011;46848;51.980;5.918;2022-09-12T04:56:04;25.83;;;19.23;;
43519;SDS011;46848;51.980;5.918;2022-09-12T04:58:31;24.33;;;17.58;;
43519;SDS011;46848;51.980;5.918;2022-09-12T05:03:37;25.13;;;17.65;;
43519;SDS011;46848;51.980;5.918;2022-09-12T05:06:04;22.85;;;17.95;;
43519;SDS011;46848;51.980;5.918;2022-09-12T05:08:31;22.50;;;17.50;;
43519;SDS011;46848;51.980;5.918;2022-09-12T05:11:02;25.90;;;19.80;;
43519;SDS011;46848;51.980;5.918;2022-09-12T05:13:29;23.77;;;17.42;;
43519;SDS011;46848;51.980;5.918;2022-09-12T05:15:56;24.88;;;18.42;;
43519;SDS011;46848;51.980;5.918;2022-09-12T05:18:23;25.83;;;19.30;;
43519;SDS011;46848;51.980;5.918;2022-09-12T05:20:48;25.92;;;19.33;;
43519;SDS011;46848;51.980;5.918;2022-09-12T05:23:14;28.48;;;18.92;;
43519;SDS011;46848;51.980;5.918;2022-09-12T05:25:47;25.17;;;18.05;;
43519;SDS011;46848;51.980;5.918;2022-09-12T05:28:17;24.40;;;17.08;;
43519;SDS011;46848;51.980;5.918;2022-09-12T05:30:43;25.73;;;17.08;;
43519;SDS011;46848;51.980;5.918;2022-09-12T05:33:09;25.70;;;18.35;;
43519;SDS011;46848;51.980;5.918;2022-09-12T05:35:35;27.05;;;18.35;;
43519;SDS011;46848;51.980;5.918;2022-09-12T05:38:02;25.15;;;18.23;;
43519;SDS011;46848;51.980;5.918;2022-09-12T05:40:30;24.85;;;17.13;;
43519;SDS011;46848;51.980;5.918;2022-09-12T05:42:55;26.25;;;18.05;;
43519;SDS011;46848;51.980;5.918;2022-09-12T05:45:21;24.63;;;18.02;;
43519;SDS011;46848;51.980;5.918;2022-09-12T05:47:47;25.23;;;18.67;;
43519;SDS011;46848;51.980;5.918;2022-09-12T05:50:13;25.85;;;18.55;;
43519;SDS011;46848;51.980;5.918;2022-09-12T05:52:39;25.98;;;16.70;;
43519;SDS011;46848;51.980;5.918;2022-09-12T05:55:04;28.27;;;17.52;;
43519;SDS011;46848;51.980;5.918;2022-09-12T05:57:30;28.52;;;19.23;;
43519;SDS011;46848;51.980;5.918;2022-09-12T05:59:57;28.13;;;18.90;;
43519;SDS011;46848;51.980;5.918;2022-09-12T06:02:23;28.05;;;18.50;;
43519;SDS011;46848;51.980;5.918;2022-09-12T06:04:48;25.58;;;17.88;;
43519;SDS011;46848;51.980;5.918;2022-09-12T06:07:14;28.17;;;18.98;;
43519;SDS011;46848;51.980;5.918;2022-09-12T06:09:40;30.70;;;20.55;;
43519;SDS011;46848;51.980;5.918;2022-09-12T06:12:05;29.63;;;18.98;;
43519;SDS011;46848;51.980;5.918;2022-09-12T06:14:32;29.35;;;19.50;;
43519;SDS011;46848;51.980;5.918;2022-09-12T06:16:58;30.30;;;20.30;;
43519;SDS011;46848;51.980;5.918;2022-09-12T06:19:24;27.40;;;18.50;;
43519;SDS011;46848;51.980;5.918;2022-09-12T06:21:52;31.77;;;20.15;;
43519;SDS011;46848;51.980;5.918;2022-09-12T06:24:18;28.90;;;18.73;;
43519;SDS011;46848;51.980;5.918;2022-09-12T06:26:45;27.15;;;18.38;;
43519;SDS011;46848;51.980;5.918;2022-09-12T06:29:13;27.08;;;19.08;;
43519;SDS011;46848;51.980;5.918;2022-09-12T06:31:39;30.60;;;19.20;;
43519;SDS011;46848;51.980;5.918;2022-09-12T06:34:07;28.15;;;19.65;;
43519;SDS011;46848;51.980;5.918;2022-09-12T06:36:38;27.42;;;19.02;;
43519;SDS011;46848;51.980;5.918;2022-09-12T06:39:08;31.60;;;19.30;;
43519;SDS011;46848;51.980;5.918;2022-09-12T06:41:36;27.77;;;19.35;;
43519;SDS011;46848;51.980;5.918;2022-09-12T06:44:02;32.40;;;19.65;;
43519;SDS011;46848;51.980;5.918;2022-09-12T06:46:28;29.00;;;19.80;;
43519;SDS011;46848;51.980;5.918;2022-09-12T06:48:58;28.55;;;19.67;;
43519;SDS011;46848;51.980;5.918;2022-09-12T06:51:25;28.50;;;20.13;;
43519;SDS011;46848;51.980;5.918;2022-09-12T06:53:53;29.30;;;19.90;;
43519;SDS011;46848;51.980;5.918;2022-09-12T06:56:21;26.63;;;19.48;;
43519;SDS011;46848;51.980;5.918;2022-09-12T06:58:49;29.02;;;19.77;;
43519;SDS011;46848;51.980;5.918;2022-09-12T07:03:46;29.27;;;20.98;;
43519;SDS011;46848;51.980;5.918;2022-09-12T07:06:13;34.47;;;21.38;;
43519;SDS011;46848;51.980;5.918;2022-09-12T07:08:41;32.97;;;20.80;;
43519;SDS011;46848;51.980;5.918;2022-09-12T07:11:11;32.03;;;20.50;;
43519;SDS011;46848;51.980;5.918;2022-09-12T07:13:37;35.88;;;21.88;;
43519;SDS011;46848;51.980;5.918;2022-09-12T07:16:07;33.20;;;20.55;;
43519;SDS011;46848;51.980;5.918;2022-09-12T07:18:34;31.73;;;21.27;;
43519;SDS011;46848;51.980;5.918;2022-09-12T07:21:02;38.40;;;23.08;;
43519;SDS011;46848;51.980;5.918;2022-09-12T07:23:29;37.78;;;24.33;;
43519;SDS011;46848;51.980;5.918;2022-09-12T07:25:55;41.40;;;25.20;;
43519;SDS011;46848;51.980;5.918;2022-09-12T07:28:22;42.47;;;25.13;;
43519;SDS011;46848;51.980;5.918;2022-09-12T07:30:48;43.05;;;26.23;;
43519;SDS011;46848;51.980;5.918;2022-09-12T07:33:15;40.88;;;24.42;;
43519;SDS011;46848;51.980;5.918;2022-09-12T07:35:41;37.83;;;24.55;;
43519;SDS011;46848;51.980;5.918;2022-09-12T07:38:07;34.05;;;23.92;;
43519;SDS011;46848;51.980;5.918;2022-09-12T07:40:33;35.80;;;23.67;;
43519;SDS011;46848;51.980;5.918;2022-09-12T07:42:58;39.55;;;25.02;;
43519;SDS011;46848;51.980;5.918;2022-09-12T07:45:24;37.63;;;23.38;;
43519;SDS011;46848;51.980;5.918;2022-09-12T07:47:52;46.67;;;28.50;;
43519;SDS011;46848;51.980;5.918;2022-09-12T07:50:19;39.38;;;26.50;;
43519;SDS011;46848;51.980;5.918;2022-09-12T07:52:44;40.88;;;25.60;;
43519;SDS011;46848;51.980;5.918;2022-09-12T07:55:14;39.63;;;25.25;;
43519;SDS011;46848;51.980;5.918;2022-09-12T07:57:40;38.33;;;26.27;;
43519;SDS011;46848;51.980;5.918;2022-09-12T08:00:06;39.92;;;26.92;;
43519;SDS011;46848;51.980;5.918;2022-09-12T08:02:33;37.78;;;25.45;;
43519;SDS011;46848;51.980;5.918;2022-09-12T08:04:58;37.75;;;25.15;;
43519;SDS011;46848;51.980;5.918;2022-09-12T08:07:24;40.10;;;24.80;;
43519;SDS011;46848;51.980;5.918;2022-09-12T08:09:50;36.55;;;24.50;;
43519;SDS011;46848;51.980;5.918;2022-09-12T08:12:16;33.63;;;23.52;;
43519;SDS011;46848;51.980;5.918;2022-09-12T08:14:44;32.60;;;24.00;;
43519;SDS011;46848;51.980;5.918;2022-09-12T08:17:10;34.20;;;24.00;;
43519;SDS011;46848;51.980;5.918;2022-09-12T08:19:36;32.72;;;22.35;;
43519;SDS011;46848;51.980;5.918;2022-09-12T08:22:02;33.33;;;23.15;;
43519;SDS011;46848;51.980;5.918;2022-09-12T08:24:29;33.72;;;22.95;;
43519;SDS011;46848;51.980;5.918;2022-09-12T08:26:56;34.03;;;23.42;;
43519;SDS011;46848;51.980;5.918;2022-09-12T08:29:21;32.22;;;22.95;;
43519;SDS011;46848;51.980;5.918;2022-09-12T08:31:47;31.63;;;21.67;;
43519;SDS011;46848;51.980;5.918;2022-09-12T08:34:13;33.90;;;21.55;;
43519;SDS011;46848;51.980;5.918;2022-09-12T08:36:41;30.70;;;21.00;;
43519;SDS011;46848;51.980;5.918;2022-09-12T08:39:06;30.95;;;21.92;;
43519;SDS011;46848;51.980;5.918;2022-09-12T08:49:55;32.40;;;19.67;;
43519;SDS011;46848;51.980;5.918;2022-09-12T08:58:08;31.08;;;20.30;;
43519;SDS011;46848;51.980;5.918;2022-09-12T09:17:33;19.92;;;14.65;;
43519;SDS011;46848;51.980;5.918;2022-09-12T09:23:12;20.73;;;13.73;;
43519;SDS011;46848;51.980;5.918;2022-09-12T09:28:29;20.55;;;13.73;;
43519;SDS011;46848;51.980;5.918;2022-09-12T09:31:25;21.60;;;14.80;;
43519;SDS011;46848;51.980;5.918;2022-09-12T09:41:44;16.85;;;11.55;;
43519;SDS011;46848;51.980;5.918;2022-09-12T09:44:31;16.77;;;11.75;;
43519;SDS011;46848;51.980;5.918;2022-09-12T09:46:57;15.25;;;11.55;;
43519;SDS011;46848;51.980;5.918;2022-09-12T09:49:26;17.98;;;12.52;;
43519;SDS011;46848;51.980;5.918;2022-09-12T09:51:54;16.65;;;10.88;;
43519;SDS011;46848;51.980;5.918;2022-09-12T09:54:35;14.88;;;9.98;;
43519;SDS011;46848;51.980;5.918;2022-09-12T10:00:24;14.15;;;9.80;;
43519;SDS011;46848;51.980;5.918;2022-09-12T10:03:23;13.07;;;9.73;;
43519;SDS011;46848;51.980;5.918;2022-09-12T10:06:01;14.68;;;9.32;;
43519;SDS011;46848;51.980;5.918;2022-09-12T10:08:32;12.57;;;9.35;;
43519;SDS011;46848;51.980;5.918;2022-09-12T10:11:15;13.50;;;9.68;;
43519;SDS011;46848;51.980;5.918;2022-09-12T10:13:51;12.45;;;9.15;;
43519;SDS011;46848;51.980;5.918;2022-09-12T10:18:52;12.88;;;9.10;;
43519;SDS011;46848;51.980;5.918;2022-09-12T10:26:45;11.07;;;7.65;;
43519;SDS011;46848;51.980;5.918;2022-09-12T10:29:21;8.05;;;6.10;;
43519;SDS011;46848;51.980;5.918;2022-09-12T10:31:49;7.70;;;5.22;;
43519;SDS011;46848;51.980;5.918;2022-09-12T10:34:25;7.30;;;4.70;;
43519;SDS011;46848;51.980;5.918;2022-09-12T10:37:01;7.43;;;5.38;;
43519;SDS011;46848;51.980;5.918;2022-09-12T10:39:36;6.00;;;4.43;;
43519;SDS011;46848;51.980;5.918;2022-09-12T10:42:03;7.38;;;5.30;;
43519;SDS011;46848;51.980;5.918;2022-09-12T10:44:33;7.00;;;4.72;;
43519;SDS011;46848;51.980;5.918;2022-09-12T10:46:59;7.35;;;4.88;;
43519;SDS011;46848;51.980;5.918;2022-09-12T10:49:44;12.07;;;4.90;;
43519;SDS011;46848;51.980;5.918;2022-09-12T10:52:21;8.40;;;4.70;;
43519;SDS011;46848;51.980;5.918;2022-09-12T10:54:48;6.93;;;4.20;;
43519;SDS011;46848;51.980;5.918;2022-09-12T11:00:03;5.60;;;4.07;;
43519;SDS011;46848;51.980;5.918;2022-09-12T11:03:12;7.70;;;4.65;;
43519;SDS011;46848;51.980;5.918;2022-09-12T11:16:20;4.10;;;3.00;;
43519;SDS011;46848;51.980;5.918;2022-09-12T11:26:53;5.93;;;4.07;;
43519;SDS011;46848;51.980;5.918;2022-09-12T11:29:29;5.82;;;3.58;;
43519;SDS011;46848;51.980;5.918;2022-09-12T11:32:12;5.10;;;3.50;;
43519;SDS011;46848;51.980;5.918;2022-09-12T11:42:59;5.18;;;3.30;;
43519;SDS011;46848;51.980;5.918;2022-09-12T11:45:47;4.82;;;2.95;;
43519;SDS011;46848;51.980;5.918;2022-09-12T11:48:56;5.10;;;3.20;;
43519;SDS011;46848;51.980;5.918;2022-09-12T11:51:16;3.63;;;2.38;;
43519;SDS011;46848;51.980;5.918;2022-09-12T11:53:44;5.40;;;2.83;;
43519;SDS011;46848;51.980;5.918;2022-09-12T11:56:15;4.33;;;2.73;;
43519;SDS011;46848;51.980;5.918;2022-09-12T11:58:43;5.45;;;3.00;;
43519;SDS011;46848;51.980;5.918;2022-09-12T12:01:16;6.07;;;3.40;;
43519;SDS011;46848;51.980;5.918;2022-09-12T12:03:47;5.20;;;2.92;;
43519;SDS011;46848;51.980;5.918;2022-09-12T12:06:33;4.45;;;3.50;;
43519;SDS011;46848;51.980;5.918;2022-09-12T12:09:21;5.50;;;3.20;;
43519;SDS011;46848;51.980;5.918;2022-09-12T12:11:48;7.53;;;3.88;;
43519;SDS011;46848;51.980;5.918;2022-09-12T12:14:19;5.95;;;3.17;;
43519;SDS011;46848;51.980;5.918;2022-09-12T12:17:00;5.05;;;3.00;;
43519;SDS011;46848;51.980;5.918;2022-09-12T12:19:35;4.38;;;3.28;;
43519;SDS011;46848;51.980;5.918;2022-09-12T12:22:05;4.72;;;2.75;;
43519;SDS011;46848;51.980;5.918;2022-09-12T12:25:02;4.53;;;2.65;;
43519;SDS011;46848;51.980;5.918;2022-09-12T12:27:48;6.82;;;3.08;;
43519;SDS011;46848;51.980;5.918;2022-09-12T12:43:41;7.40;;;4.22;;
43519;SDS011;46848;51.980;5.918;2022-09-12T12:46:09;5.00;;;3.40;;
43519;SDS011;46848;51.980;5.918;2022-09-12T12:48:50;7.65;;;3.42;;
43519;SDS011;46848;51.980;5.918;2022-09-12T12:54:27;4.38;;;2.88;;
43519;SDS011;46848;51.980;5.918;2022-09-12T12:59:30;5.43;;;3.70;;
43519;SDS011;46848;51.980;5.918;2022-09-12T13:01:56;6.82;;;3.53;;
43519;SDS011;46848;51.980;5.918;2022-09-12T13:04:24;7.00;;;4.05;;
43519;SDS011;46848;51.980;5.918;2022-09-12T13:07:04;6.15;;;2.92;;
43519;SDS011;46848;51.980;5.918;2022-09-12T13:14:36;5.07;;;3.47;;
43519;SDS011;46848;51.980;5.918;2022-09-12T13:17:37;6.03;;;3.45;;
43519;SDS011;46848;51.980;5.918;2022-09-12T13:22:43;4.65;;;2.38;;
43519;SDS011;46848;51.980;5.918;2022-09-12T13:25:21;4.43;;;2.85;;
43519;SDS011;46848;51.980;5.918;2022-09-12T13:30:36;4.38;;;2.97;;
43519;SDS011;46848;51.980;5.918;2022-09-12T13:43:49;4.57;;;2.92;;
43519;SDS011;46848;51.980;5.918;2022-09-12T13:46:25;5.35;;;3.85;;
43519;SDS011;46848;51.980;5.918;2022-09-12T13:48:55;3.58;;;2.60;;
43519;SDS011;46848;51.980;5.918;2022-09-12T13:51:26;5.15;;;1.98;;
43519;SDS011;46848;51.980;5.918;2022-09-12T13:53:55;8.13;;;2.70;;
43519;SDS011;46848;51.980;5.918;2022-09-12T13:56:30;3.97;;;2.10;;
43519;SDS011;46848;51.980;5.918;2022-09-12T13:58:57;5.78;;;3.40;;
43519;SDS011;46848;51.980;5.918;2022-09-12T14:01:38;4.30;;;2.30;;
43519;SDS011;46848;51.980;5.918;2022-09-12T14:04:16;5.43;;;2.85;;
43519;SDS011;46848;51.980;5.918;2022-09-12T14:07:08;4.28;;;3.03;;
43519;SDS011;46848;51.980;5.918;2022-09-12T14:09:39;4.32;;;2.95;;
43519;SDS011;46848;51.980;5.918;2022-09-12T14:12:25;4.35;;;2.60;;
43519;SDS011;46848;51.980;5.918;2022-09-12T14:14:53;4.28;;;2.45;;
43519;SDS011;46848;51.980;5.918;2022-09-12T14:19:53;2.72;;;1.75;;
43519;SDS011;46848;51.980;5.918;2022-09-12T14:22:22;4.50;;;2.70;;
43519;SDS011;46848;51.980;5.918;2022-09-12T14:24:48;5.47;;;2.85;;
43519;SDS011;46848;51.980;5.918;2022-09-12T14:27:21;4.30;;;2.20;;
43519;SDS011;46848;51.980;5.918;2022-09-12T14:29:52;4.97;;;2.55;;
43519;SDS011;46848;51.980;5.918;2022-09-12T14:32:25;5.95;;;2.40;;
43519;SDS011;46848;51.980;5.918;2022-09-12T14:35:04;4.60;;;3.00;;
43519;SDS011;46848;51.980;5.918;2022-09-12T14:37:30;4.50;;;2.85;;
43519;SDS011;46848;51.980;5.918;2022-09-12T14:39:56;3.90;;;2.40;;
43519;SDS011;46848;51.980;5.918;2022-09-12T14:42:24;3.78;;;2.35;;
43519;SDS011;46848;51.980;5.918;2022-09-12T14:47:25;4.32;;;3.45;;
43519;SDS011;46848;51.980;5.918;2022-09-12T14:49:53;3.80;;;2.75;;
43519;SDS011;46848;51.980;5.918;2022-09-12T14:52:26;3.90;;;2.20;;
43519;SDS011;46848;51.980;5.918;2022-09-12T14:54:59;3.25;;;2.13;;
43519;SDS011;46848;51.980;5.918;2022-09-12T14:57:42;4.57;;;2.40;;
43519;SDS011;46848;51.980;5.918;2022-09-12T15:02:38;5.80;;;2.72;;
43519;SDS011;46848;51.980;5.918;2022-09-12T15:07:34;4.80;;;2.25;;
43519;SDS011;46848;51.980;5.918;2022-09-12T15:10:06;3.60;;;2.28;;
43519;SDS011;46848;51.980;5.918;2022-09-12T15:12:46;4.10;;;2.17;;
43519;SDS011;46848;51.980;5.918;2022-09-12T15:15:13;5.43;;;2.28;;
43519;SDS011;46848;51.980;5.918;2022-09-12T15:17:41;4.70;;;1.95;;
43519;SDS011;46848;51.980;5.918;2022-09-12T15:20:07;3.33;;;2.33;;
43519;SDS011;46848;51.980;5.918;2022-09-12T15:22:33;4.00;;;2.20;;
43519;SDS011;46848;51.980;5.918;2022-09-12T15:25:00;6.82;;;3.15;;
43519;SDS011;46848;51.980;5.918;2022-09-12T15:27:26;3.53;;;2.33;;
43519;SDS011;46848;51.980;5.918;2022-09-12T15:29:52;4.15;;;2.20;;
43519;SDS011;46848;51.980;5.918;2022-09-12T15:32:22;4.68;;;2.50;;
43519;SDS011;46848;51.980;5.918;2022-09-12T15:34:49;3.72;;;2.08;;
43519;SDS011;46848;51.980;5.918;2022-09-12T15:37:15;4.15;;;2.40;;
43519;SDS011;46848;51.980;5.918;2022-09-12T15:39:41;4.53;;;2.60;;
43519;SDS011;46848;51.980;5.918;2022-09-12T15:42:09;3.80;;;2.53;;
43519;SDS011;46848;51.980;5.918;2022-09-12T15:44:35;4.80;;;2.60;;
43519;SDS011;46848;51.980;5.918;2022-09-12T15:47:01;3.80;;;2.30;;
43519;SDS011;46848;51.980;5.918;2022-09-12T15:49:26;4.38;;;2.58;;
43519;SDS011;46848;51.980;5.918;2022-09-12T15:51:52;4.22;;;2.65;;
43519;SDS011;46848;51.980;5.918;2022-09-12T15:54:18;4.72;;;2.17;;
43519;SDS011;46848;51.980;5.918;2022-09-12T15:56:44;4.00;;;2.28;;
43519;SDS011;46848;51.980;5.918;2022-09-12T15:59:10;3.42;;;2.10;;
43519;SDS011;46848;51.980;5.918;2022-09-12T16:01:36;6.15;;;2.97;;
43519;SDS011;46848;51.980;5.918;2022-09-12T16:04:01;3.50;;;2.60;;
43519;SDS011;46848;51.980;5.918;2022-09-12T16:06:27;4.07;;;2.20;;
43519;SDS011;46848;51.980;5.918;2022-09-12T16:08:55;5.20;;;2.45;;
43519;SDS011;46848;51.980;5.918;2022-09-12T16:11:24;5.93;;;2.88;;
43519;SDS011;46848;51.980;5.918;2022-09-12T16:13:51;4.80;;;2.60;;
43519;SDS011;46848;51.980;5.918;2022-09-12T16:16:17;3.40;;;2.20;;
43519;SDS011;46848;51.980;5.918;2022-09-12T16:18:43;3.85;;;2.30;;
43519;SDS011;46848;51.980;5.918;2022-09-12T16:21:09;8.38;;;3.28;;
43519;SDS011;46848;51.980;5.918;2022-09-12T16:23:35;6.95;;;2.63;;
43519;SDS011;46848;51.980;5.918;2022-09-12T16:26:01;4.50;;;2.58;;
43519;SDS011;46848;51.980;5.918;2022-09-12T16:28:28;4.88;;;3.03;;
43519;SDS011;46848;51.980;5.918;2022-09-12T16:30:58;4.07;;;2.72;;
43519;SDS011;46848;51.980;5.918;2022-09-12T16:33:25;4.35;;;2.72;;
43519;SDS011;46848;51.980;5.918;2022-09-12T16:35:51;5.47;;;3.42;;
43519;SDS011;46848;51.980;5.918;2022-09-12T16:38:21;5.80;;;2.67;;
43519;SDS011;46848;51.980;5.918;2022-09-12T16:40:47;4.30;;;2.60;;
43519;SDS011;46848;51.980;5.918;2022-09-12T16:43:13;4.80;;;2.90;;
43519;SDS011;46848;51.980;5.918;2022-09-12T16:45:41;4.97;;;2.95;;
43519;SDS011;46848;51.980;5.918;2022-09-12T16:48:08;5.63;;;2.55;;
43519;SDS011;46848;51.980;5.918;2022-09-12T16:50:33;5.75;;;2.90;;
43519;SDS011;46848;51.980;5.918;2022-09-12T16:52:59;5.75;;;3.00;;
43519;SDS011;46848;51.980;5.918;2022-09-12T16:55:25;5.80;;;3.00;;
43519;SDS011;46848;51.980;5.918;2022-09-12T16:57:52;5.38;;;2.90;;
43519;SDS011;46848;51.980;5.918;2022-09-12T17:00:18;6.10;;;2.60;;
43519;SDS011;46848;51.980;5.918;2022-09-12T17:02:43;3.22;;;2.33;;
43519;SDS011;46848;51.980;5.918;2022-09-12T17:05:09;3.70;;;2.67;;
43519;SDS011;46848;51.980;5.918;2022-09-12T17:07:35;4.13;;;2.75;;
43519;SDS011;46848;51.980;5.918;2022-09-12T17:10:00;4.18;;;2.60;;
43519;SDS011;46848;51.980;5.918;2022-09-12T17:12:26;4.85;;;2.47;;
43519;SDS011;46848;51.980;5.918;2022-09-12T17:14:51;4.25;;;2.38;;
43519;SDS011;46848;51.980;5.918;2022-09-12T17:17:17;4.65;;;2.97;;
43519;SDS011;46848;51.980;5.918;2022-09-12T17:19:43;3.90;;;2.22;;
43519;SDS011;46848;51.980;5.918;2022-09-12T17:22:08;5.20;;;2.45;;
43519;SDS011;46848;51.980;5.918;2022-09-12T17:24:34;4.95;;;2.70;;
43519;SDS011;46848;51.980;5.918;2022-09-12T17:27:00;6.43;;;3.13;;
43519;SDS011;46848;51.980;5.918;2022-09-12T17:29:26;5.00;;;3.00;;
43519;SDS011;46848;51.980;5.918;2022-09-12T17:31:51;3.53;;;2.53;;
43519;SDS011;46848;51.980;5.918;2022-09-12T17:34:19;3.65;;;2.58;;
43519;SDS011;46848;51.980;5.918;2022-09-12T17:36:45;5.32;;;2.20;;
43519;SDS011;46848;51.980;5.918;2022-09-12T17:39:12;3.53;;;2.42;;
43519;SDS011;46848;51.980;5.918;2022-09-12T17:41:38;2.80;;;1.83;;
43519;SDS011;46848;51.980;5.918;2022-09-12T17:44:07;3.92;;;2.70;;
43519;SDS011;46848;51.980;5.918;2022-09-12T17:46:35;5.28;;;2.70;;
43519;SDS011;46848;51.980;5.918;2022-09-12T17:49:03;5.30;;;2.47;;
43519;SDS011;46848;51.980;5.918;2022-09-12T17:51:30;5.13;;;2.60;;
43519;SDS011;46848;51.980;5.918;2022-09-12T17:54:09;5.53;;;2.70;;
43519;SDS011;46848;51.980;5.918;2022-09-12T17:56:40;6.13;;;2.50;;
43519;SDS011;46848;51.980;5.918;2022-09-12T17:59:07;4.40;;;2.30;;
43519;SDS011;46848;51.980;5.918;2022-09-12T18:01:38;3.92;;;2.47;;
43519;SDS011;46848;51.980;5.918;2022-09-12T18:04:23;4.10;;;2.42;;
43519;SDS011;46848;51.980;5.918;2022-09-12T18:06:48;3.17;;;2.17;;